sensor_id;sensor_type;location;lat;lon;timestamp;temperature;humidity
27544;DHT22;17996;51.056;3.656;2023-02-01T00:01:23;8.10;99.90
27544;DHT22;17996;51.056;3.656;2023-02-01T00:03:49;8.10;99.90
27544;DHT22;17996;51.056;3.656;2023-02-01T00:06:15;8.00;99.90
27544;DHT22;17996;51.056;3.656;2023-02-01T00:08:40;8.10;99.90
27544;DHT22;17996;51.056;3.656;2023-02-01T00:11:11;7.90;99.90
27544;DHT22;17996;51.056;3.656;2023-02-01T00:13:38;7.80;99.90
27544;DHT22;17996;51.056;3.656;2023-02-01T00:16:05;7.90;99.90
27544;DHT22;17996;51.056;3.656;2023-02-01T00:18:31;7.70;99.90
27544;DHT22;17996;51.056;3.656;2023-02-01T00:20:57;7.70;99.90
27544;DHT22;17996;51.056;3.656;2023-02-01T00:23:23;7.60;99.90
27544;DHT22;17996;51.056;3.656;2023-02-01T00:25:48;7.60;99.90
27544;DHT22;17996;51.056;3.656;2023-02-01T00:28:14;7.60;99.90
27544;DHT22;17996;51.056;3.656;2023-02-01T00:30:40;7.70;99.90
27544;DHT22;17996;51.056;3.656;2023-02-01T00:33:05;7.40;99.90
27544;DHT22;17996;51.056;3.656;2023-02-01T00:35:31;7.40;99.90
27544;DHT22;17996;51.056;3.656;2023-02-01T00:37:58;7.50;99.90
27544;DHT22;17996;51.056;3.656;2023-02-01T00:40:24;7.40;99.90
27544;DHT22;17996;51.056;3.656;2023-02-01T00:42:50;7.30;99.90
27544;DHT22;17996;51.056;3.656;2023-02-01T00:45:16;7.40;99.90
27544;DHT22;17996;51.056;3.656;2023-02-01T00:47:41;7.20;99.90
27544;DHT22;17996;51.056;3.656;2023-02-01T00:50:07;7.20;99.90
27544;DHT22;17996;51.056;3.656;2023-02-01T00:52:33;7.20;99.90
27544;DHT22;17996;51.056;3.656;2023-02-01T00:54:59;7.20;99.90
27544;DHT22;17996;51.056;3.656;2023-02-01T00:57:24;7.30;99.90
27544;DHT22;17996;51.056;3.656;2023-02-01T00:59:50;7.10;99.90
27544;DHT22;17996;51.056;3.656;2023-02-01T01:02:16;7.10;99.90
27544;DHT22;17996;51.056;3.656;2023-02-01T01:04:41;7.30;99.90
27544;DHT22;17996;51.056;3.656;2023-02-01T01:07:07;7.20;99.90
27544;DHT22;17996;51.056;3.656;2023-02-01T01:09:33;7.10;99.90
27544;DHT22;17996;51.056;3.656;2023-02-01T01:11:58;7.20;99.90
27544;DHT22;17996;51.056;3.656;2023-02-01T01:14:28;7.00;99.90
27544;DHT22;17996;51.056;3.656;2023-02-01T01:16:54;7.00;99.90
27544;DHT22;17996;51.056;3.656;2023-02-01T01:19:19;7.20;99.90
27544;DHT22;17996;51.056;3.656;2023-02-01T01:21:45;7.10;99.90
27544;DHT22;17996;51.056;3.656;2023-02-01T01:24:10;6.90;99.90
27544;DHT22;17996;51.056;3.656;2023-02-01T01:26:36;6.90;99.90
27544;DHT22;17996;51.056;3.656;2023-02-01T01:29:02;7.00;99.90
27544;DHT22;17996;51.056;3.656;2023-02-01T01:31:29;7.00;99.90
27544;DHT22;17996;51.056;3.656;2023-02-01T01:33:57;6.90;99.90
27544;DHT22;17996;51.056;3.656;2023-02-01T01:36:24;6.90;99.90
27544;DHT22;17996;51.056;3.656;2023-02-01T01:38:50;6.90;99.90
27544;DHT22;17996;51.056;3.656;2023-02-01T01:41:19;6.90;99.90
27544;DHT22;17996;51.056;3.656;2023-02-01T01:43:53;7.00;99.90
27544;DHT22;17996;51.056;3.656;2023-02-01T01:46:29;6.90;99.90
27544;DHT22;17996;51.056;3.656;2023-02-01T01:49:17;6.90;99.90
27544;DHT22;17996;51.056;3.656;2023-02-01T01:51:51;6.80;99.90
27544;DHT22;17996;51.056;3.656;2023-02-01T01:54:34;6.90;99.90
27544;DHT22;17996;51.056;3.656;2023-02-01T01:57:16;6.80;99.90
27544;DHT22;17996;51.056;3.656;2023-02-01T01:59:46;6.90;99.90
27544;DHT22;17996;51.056;3.656;2023-02-01T02:02:13;6.80;99.90
27544;DHT22;17996;51.056;3.656;2023-02-01T02:04:39;6.80;99.90
27544;DHT22;17996;51.056;3.656;2023-02-01T02:07:09;6.80;99.90
27544;DHT22;17996;51.056;3.656;2023-02-01T02:09:37;6.80;99.90
27544;DHT22;17996;51.056;3.656;2023-02-01T02:12:03;6.80;99.90
27544;DHT22;17996;51.056;3.656;2023-02-01T02:14:29;6.70;99.90
27544;DHT22;17996;51.056;3.656;2023-02-01T02:20:05;6.70;99.90
27544;DHT22;17996;51.056;3.656;2023-02-01T02:23:11;6.70;99.90
27544;DHT22;17996;51.056;3.656;2023-02-01T02:25:59;6.70;99.90
27544;DHT22;17996;51.056;3.656;2023-02-01T02:34:25;6.60;99.90
27544;DHT22;17996;51.056;3.656;2023-02-01T02:37:19;6.60;99.90
27544;DHT22;17996;51.056;3.656;2023-02-01T02:39:58;6.60;99.90
27544;DHT22;17996;51.056;3.656;2023-02-01T02:42:50;6.70;99.90
27544;DHT22;17996;51.056;3.656;2023-02-01T02:45:41;6.60;99.90
27544;DHT22;17996;51.056;3.656;2023-02-01T02:48:29;6.70;99.90
27544;DHT22;17996;51.056;3.656;2023-02-01T02:51:07;6.70;99.90
27544;DHT22;17996;51.056;3.656;2023-02-01T02:54:07;6.70;99.90
27544;DHT22;17996;51.056;3.656;2023-02-01T02:56:55;6.70;99.90
27544;DHT22;17996;51.056;3.656;2023-02-01T02:59:40;6.70;99.90
27544;DHT22;17996;51.056;3.656;2023-02-01T03:02:27;6.70;99.90
27544;DHT22;17996;51.056;3.656;2023-02-01T03:05:13;6.70;99.90
27544;DHT22;17996;51.056;3.656;2023-02-01T03:07:55;6.70;99.90
27544;DHT22;17996;51.056;3.656;2023-02-01T03:10:47;6.70;99.90
27544;DHT22;17996;51.056;3.656;2023-02-01T03:15:54;6.70;99.90
27544;DHT22;17996;51.056;3.656;2023-02-01T03:18:46;6.80;99.90
27544;DHT22;17996;51.056;3.656;2023-02-01T03:21:28;6.80;99.90
27544;DHT22;17996;51.056;3.656;2023-02-01T03:24:03;6.80;99.90
27544;DHT22;17996;51.056;3.656;2023-02-01T03:26:32;6.80;99.90
27544;DHT22;17996;51.056;3.656;2023-02-01T03:29:05;6.80;99.90
27544;DHT22;17996;51.056;3.656;2023-02-01T03:31:33;6.90;99.90
27544;DHT22;17996;51.056;3.656;2023-02-01T03:33:58;6.80;99.90
27544;DHT22;17996;51.056;3.656;2023-02-01T03:36:44;6.80;99.90
27544;DHT22;17996;51.056;3.656;2023-02-01T03:39:29;6.80;99.90
27544;DHT22;17996;51.056;3.656;2023-02-01T03:41:59;6.80;99.90
27544;DHT22;17996;51.056;3.656;2023-02-01T03:44:37;6.80;99.90
27544;DHT22;17996;51.056;3.656;2023-02-01T03:47:08;6.80;99.90
27544;DHT22;17996;51.056;3.656;2023-02-01T03:49:39;6.80;99.90
27544;DHT22;17996;51.056;3.656;2023-02-01T03:52:11;6.70;99.90
27544;DHT22;17996;51.056;3.656;2023-02-01T03:54:39;6.80;99.90
27544;DHT22;17996;51.056;3.656;2023-02-01T03:57:09;6.70;99.90
27544;DHT22;17996;51.056;3.656;2023-02-01T03:59:44;6.80;99.90
27544;DHT22;17996;51.056;3.656;2023-02-01T04:02:10;6.80;99.90
27544;DHT22;17996;51.056;3.656;2023-02-01T04:04:36;6.60;99.90
27544;DHT22;17996;51.056;3.656;2023-02-01T04:07:03;6.70;99.90
27544;DHT22;17996;51.056;3.656;2023-02-01T04:09:29;6.60;99.90
27544;DHT22;17996;51.056;3.656;2023-02-01T04:11:54;6.60;99.90
27544;DHT22;17996;51.056;3.656;2023-02-01T04:14:20;6.50;99.90
27544;DHT22;17996;51.056;3.656;2023-02-01T04:16:46;6.50;99.90
27544;DHT22;17996;51.056;3.656;2023-02-01T04:19:11;6.50;99.90
27544;DHT22;17996;51.056;3.656;2023-02-01T04:21:37;6.50;99.90
27544;DHT22;17996;51.056;3.656;2023-02-01T04:24:03;6.40;99.90
27544;DHT22;17996;51.056;3.656;2023-02-01T04:26:29;6.50;99.90
27544;DHT22;17996;51.056;3.656;2023-02-01T04:28:55;6.50;99.90
27544;DHT22;17996;51.056;3.656;2023-02-01T04:31:20;6.50;99.90
27544;DHT22;17996;51.056;3.656;2023-02-01T04:33:54;6.60;99.90
27544;DHT22;17996;51.056;3.656;2023-02-01T04:36:21;6.50;99.90
27544;DHT22;17996;51.056;3.656;2023-02-01T04:38:52;6.60;99.90
27544;DHT22;17996;51.056;3.656;2023-02-01T04:41:19;6.50;99.90
27544;DHT22;17996;51.056;3.656;2023-02-01T04:43:49;6.40;99.90
27544;DHT22;17996;51.056;3.656;2023-02-01T04:46:16;6.60;99.90
27544;DHT22;17996;51.056;3.656;2023-02-01T04:48:42;6.30;99.90
27544;DHT22;17996;51.056;3.656;2023-02-01T04:51:08;6.40;99.90
27544;DHT22;17996;51.056;3.656;2023-02-01T04:53:34;6.30;99.90
27544;DHT22;17996;51.056;3.656;2023-02-01T04:56:00;6.50;99.90
27544;DHT22;17996;51.056;3.656;2023-02-01T04:58:26;6.40;99.90
27544;DHT22;17996;51.056;3.656;2023-02-01T05:00:51;6.30;99.90
27544;DHT22;17996;51.056;3.656;2023-02-01T05:03:17;6.30;99.90
27544;DHT22;17996;51.056;3.656;2023-02-01T05:05:43;6.50;99.90
27544;DHT22;17996;51.056;3.656;2023-02-01T05:08:09;6.30;99.90
27544;DHT22;17996;51.056;3.656;2023-02-01T05:10:35;6.50;99.90
27544;DHT22;17996;51.056;3.656;2023-02-01T05:13:00;6.30;99.90
27544;DHT22;17996;51.056;3.656;2023-02-01T05:15:45;6.30;99.90
27544;DHT22;17996;51.056;3.656;2023-02-01T05:18:12;6.50;99.90
27544;DHT22;17996;51.056;3.656;2023-02-01T05:20:38;6.50;99.90
27544;DHT22;17996;51.056;3.656;2023-02-01T05:23:03;6.30;99.90
27544;DHT22;17996;51.056;3.656;2023-02-01T05:25:29;6.40;99.90
27544;DHT22;17996;51.056;3.656;2023-02-01T05:27:55;6.50;99.90
27544;DHT22;17996;51.056;3.656;2023-02-01T05:30:21;6.40;99.90
27544;DHT22;17996;51.056;3.656;2023-02-01T05:32:52;6.30;99.90
27544;DHT22;17996;51.056;3.656;2023-02-01T05:35:19;6.30;99.90
27544;DHT22;17996;51.056;3.656;2023-02-01T05:37:45;6.50;99.90
27544;DHT22;17996;51.056;3.656;2023-02-01T05:40:11;6.30;99.90
27544;DHT22;17996;51.056;3.656;2023-02-01T05:42:36;6.20;99.90
27544;DHT22;17996;51.056;3.656;2023-02-01T05:45:02;6.30;99.90
27544;DHT22;17996;51.056;3.656;2023-02-01T05:47:30;6.20;99.90
27544;DHT22;17996;51.056;3.656;2023-02-01T05:49:56;6.20;99.90
27544;DHT22;17996;51.056;3.656;2023-02-01T05:52:22;6.40;99.90
27544;DHT22;17996;51.056;3.656;2023-02-01T05:54:48;6.30;99.90
27544;DHT22;17996;51.056;3.656;2023-02-01T05:57:14;6.20;99.90
27544;DHT22;17996;51.056;3.656;2023-02-01T05:59:40;6.30;99.90
27544;DHT22;17996;51.056;3.656;2023-02-01T06:02:13;6.10;99.90
27544;DHT22;17996;51.056;3.656;2023-02-01T06:04:38;6.10;99.90
27544;DHT22;17996;51.056;3.656;2023-02-01T06:07:05;6.20;99.90
27544;DHT22;17996;51.056;3.656;2023-02-01T06:09:34;6.10;99.90
27544;DHT22;17996;51.056;3.656;2023-02-01T06:12:00;6.10;99.90
27544;DHT22;17996;51.056;3.656;2023-02-01T06:14:27;6.20;99.90
27544;DHT22;17996;51.056;3.656;2023-02-01T06:16:53;6.10;99.90
27544;DHT22;17996;51.056;3.656;2023-02-01T06:19:20;6.10;99.90
27544;DHT22;17996;51.056;3.656;2023-02-01T06:21:45;6.20;99.90
27544;DHT22;17996;51.056;3.656;2023-02-01T06:24:12;6.20;99.90
27544;DHT22;17996;51.056;3.656;2023-02-01T06:26:38;6.10;99.90
27544;DHT22;17996;51.056;3.656;2023-02-01T06:29:12;6.20;99.90
27544;DHT22;17996;51.056;3.656;2023-02-01T06:31:38;6.20;99.90
27544;DHT22;17996;51.056;3.656;2023-02-01T06:34:03;6.30;99.90
27544;DHT22;17996;51.056;3.656;2023-02-01T06:36:29;6.20;99.90
27544;DHT22;17996;51.056;3.656;2023-02-01T06:38:58;6.20;99.90
27544;DHT22;17996;51.056;3.656;2023-02-01T06:41:25;6.30;99.90
27544;DHT22;17996;51.056;3.656;2023-02-01T06:43:51;6.20;99.90
27544;DHT22;17996;51.056;3.656;2023-02-01T06:46:17;6.20;99.90
27544;DHT22;17996;51.056;3.656;2023-02-01T06:48:43;6.20;99.90
27544;DHT22;17996;51.056;3.656;2023-02-01T06:51:22;6.10;99.90
27544;DHT22;17996;51.056;3.656;2023-02-01T06:53:49;6.10;99.90
27544;DHT22;17996;51.056;3.656;2023-02-01T06:56:15;6.20;99.90
27544;DHT22;17996;51.056;3.656;2023-02-01T06:58:40;6.10;99.90
27544;DHT22;17996;51.056;3.656;2023-02-01T07:01:08;6.10;99.90
27544;DHT22;17996;51.056;3.656;2023-02-01T07:03:34;6.10;99.90
27544;DHT22;17996;51.056;3.656;2023-02-01T07:06:00;6.20;99.90
27544;DHT22;17996;51.056;3.656;2023-02-01T07:08:29;6.10;99.90
27544;DHT22;17996;51.056;3.656;2023-02-01T07:10:55;6.20;99.90
27544;DHT22;17996;51.056;3.656;2023-02-01T07:13:21;6.30;99.90
27544;DHT22;17996;51.056;3.656;2023-02-01T07:15:47;6.10;99.90
27544;DHT22;17996;51.056;3.656;2023-02-01T07:18:13;6.30;99.90
27544;DHT22;17996;51.056;3.656;2023-02-01T07:20:40;6.30;99.90
27544;DHT22;17996;51.056;3.656;2023-02-01T07:23:06;6.10;99.90
27544;DHT22;17996;51.056;3.656;2023-02-01T07:25:31;6.20;99.90
27544;DHT22;17996;51.056;3.656;2023-02-01T07:27:59;6.30;99.90
27544;DHT22;17996;51.056;3.656;2023-02-01T07:30:25;6.10;99.90
27544;DHT22;17996;51.056;3.656;2023-02-01T07:32:51;6.20;99.90
27544;DHT22;17996;51.056;3.656;2023-02-01T07:35:17;6.20;99.90
27544;DHT22;17996;51.056;3.656;2023-02-01T07:37:42;6.30;99.90
27544;DHT22;17996;51.056;3.656;2023-02-01T07:40:08;6.20;99.90
27544;DHT22;17996;51.056;3.656;2023-02-01T07:42:34;6.20;99.90
27544;DHT22;17996;51.056;3.656;2023-02-01T07:45:00;6.20;99.90
27544;DHT22;17996;51.056;3.656;2023-02-01T07:47:27;6.20;99.90
27544;DHT22;17996;51.056;3.656;2023-02-01T07:49:53;6.30;99.90
27544;DHT22;17996;51.056;3.656;2023-02-01T07:52:18;6.50;99.90
27544;DHT22;17996;51.056;3.656;2023-02-01T07:54:44;6.30;99.90
27544;DHT22;17996;51.056;3.656;2023-02-01T07:57:10;6.50;99.90
27544;DHT22;17996;51.056;3.656;2023-02-01T07:59:37;6.40;99.90
27544;DHT22;17996;51.056;3.656;2023-02-01T08:02:22;6.60;99.90
27544;DHT22;17996;51.056;3.656;2023-02-01T08:04:48;6.60;99.90
27544;DHT22;17996;51.056;3.656;2023-02-01T08:07:14;6.40;99.90
27544;DHT22;17996;51.056;3.656;2023-02-01T08:09:40;6.50;99.90
27544;DHT22;17996;51.056;3.656;2023-02-01T08:12:06;6.50;99.90
27544;DHT22;17996;51.056;3.656;2023-02-01T08:14:31;6.60;99.90
27544;DHT22;17996;51.056;3.656;2023-02-01T08:16:57;6.80;99.90
27544;DHT22;17996;51.056;3.656;2023-02-01T08:19:22;6.60;99.90
27544;DHT22;17996;51.056;3.656;2023-02-01T08:21:48;6.80;99.90
27544;DHT22;17996;51.056;3.656;2023-02-01T08:24:14;6.70;99.90
27544;DHT22;17996;51.056;3.656;2023-02-01T08:26:40;6.70;99.90
27544;DHT22;17996;51.056;3.656;2023-02-01T08:29:07;6.80;99.90
27544;DHT22;17996;51.056;3.656;2023-02-01T08:31:33;6.80;99.90
27544;DHT22;17996;51.056;3.656;2023-02-01T08:34:02;6.80;99.90
27544;DHT22;17996;51.056;3.656;2023-02-01T08:36:30;7.00;99.90
27544;DHT22;17996;51.056;3.656;2023-02-01T08:38:56;6.90;99.90
27544;DHT22;17996;51.056;3.656;2023-02-01T08:41:24;7.00;99.90
27544;DHT22;17996;51.056;3.656;2023-02-01T08:43:50;7.00;99.90
27544;DHT22;17996;51.056;3.656;2023-02-01T08:46:16;6.90;99.90
27544;DHT22;17996;51.056;3.656;2023-02-01T08:48:42;6.90;99.90
27544;DHT22;17996;51.056;3.656;2023-02-01T08:51:10;7.00;99.90
27544;DHT22;17996;51.056;3.656;2023-02-01T08:53:36;7.00;99.90
27544;DHT22;17996;51.056;3.656;2023-02-01T08:56:03;7.00;99.90
27544;DHT22;17996;51.056;3.656;2023-02-01T08:58:28;7.10;99.90
27544;DHT22;17996;51.056;3.656;2023-02-01T09:00:54;7.20;99.90
27544;DHT22;17996;51.056;3.656;2023-02-01T09:03:20;7.20;99.90
27544;DHT22;17996;51.056;3.656;2023-02-01T09:05:46;7.30;99.90
27544;DHT22;17996;51.056;3.656;2023-02-01T09:08:13;7.30;99.90
27544;DHT22;17996;51.056;3.656;2023-02-01T09:10:41;7.50;99.90
27544;DHT22;17996;51.056;3.656;2023-02-01T09:13:08;7.40;99.90
27544;DHT22;17996;51.056;3.656;2023-02-01T09:15:34;7.50;99.90
27544;DHT22;17996;51.056;3.656;2023-02-01T09:18:00;7.50;99.90
27544;DHT22;17996;51.056;3.656;2023-02-01T09:20:26;7.50;99.90
27544;DHT22;17996;51.056;3.656;2023-02-01T09:22:52;7.60;99.90
27544;DHT22;17996;51.056;3.656;2023-02-01T09:25:18;7.50;99.90
27544;DHT22;17996;51.056;3.656;2023-02-01T09:27:44;7.60;99.90
27544;DHT22;17996;51.056;3.656;2023-02-01T09:30:10;7.60;99.90
27544;DHT22;17996;51.056;3.656;2023-02-01T09:32:36;7.60;99.90
27544;DHT22;17996;51.056;3.656;2023-02-01T09:35:02;7.60;99.90
27544;DHT22;17996;51.056;3.656;2023-02-01T09:37:28;7.70;99.90
27544;DHT22;17996;51.056;3.656;2023-02-01T09:39:53;7.70;99.90
27544;DHT22;17996;51.056;3.656;2023-02-01T09:42:46;7.60;99.90
27544;DHT22;17996;51.056;3.656;2023-02-01T09:48:02;7.70;99.90
27544;DHT22;17996;51.056;3.656;2023-02-01T09:50:39;7.70;99.90
27544;DHT22;17996;51.056;3.656;2023-02-01T09:53:14;7.80;99.90
27544;DHT22;17996;51.056;3.656;2023-02-01T09:55:43;7.90;99.90
27544;DHT22;17996;51.056;3.656;2023-02-01T10:00:52;8.00;99.90
27544;DHT22;17996;51.056;3.656;2023-02-01T10:03:17;8.10;99.90
27544;DHT22;17996;51.056;3.656;2023-02-01T10:11:57;8.20;99.90
27544;DHT22;17996;51.056;3.656;2023-02-01T10:20:09;8.20;99.90
27544;DHT22;17996;51.056;3.656;2023-02-01T10:22:46;8.20;99.90
27544;DHT22;17996;51.056;3.656;2023-02-01T10:28:00;8.40;99.90
27544;DHT22;17996;51.056;3.656;2023-02-01T10:30:37;8.50;99.90
27544;DHT22;17996;51.056;3.656;2023-02-01T10:33:34;8.40;99.90
27544;DHT22;17996;51.056;3.656;2023-02-01T10:36:25;8.50;99.90
27544;DHT22;17996;51.056;3.656;2023-02-01T10:38:53;8.50;99.90
27544;DHT22;17996;51.056;3.656;2023-02-01T10:41:21;8.60;99.90
27544;DHT22;17996;51.056;3.656;2023-02-01T10:43:55;8.50;99.90
27544;DHT22;17996;51.056;3.656;2023-02-01T10:46:23;8.60;99.90
27544;DHT22;17996;51.056;3.656;2023-02-01T10:48:53;8.50;99.90
27544;DHT22;17996;51.056;3.656;2023-02-01T10:51:24;8.50;99.90
27544;DHT22;17996;51.056;3.656;2023-02-01T10:54:04;8.50;99.90
27544;DHT22;17996;51.056;3.656;2023-02-01T10:56:37;8.40;99.90
27544;DHT22;17996;51.056;3.656;2023-02-01T10:59:06;8.50;99.90
27544;DHT22;17996;51.056;3.656;2023-02-01T11:01:40;8.60;99.90
27544;DHT22;17996;51.056;3.656;2023-02-01T11:04:11;8.70;99.90
27544;DHT22;17996;51.056;3.656;2023-02-01T11:06:44;8.90;99.90
27544;DHT22;17996;51.056;3.656;2023-02-01T11:09:18;8.90;99.90
27544;DHT22;17996;51.056;3.656;2023-02-01T11:14:20;9.10;99.90
27544;DHT22;17996;51.056;3.656;2023-02-01T11:16:56;9.20;99.90
27544;DHT22;17996;51.056;3.656;2023-02-01T11:19:22;9.20;99.90
27544;DHT22;17996;51.056;3.656;2023-02-01T11:21:53;9.20;99.90
27544;DHT22;17996;51.056;3.656;2023-02-01T11:24:39;9.30;99.90
27544;DHT22;17996;51.056;3.656;2023-02-01T11:27:14;9.30;99.90
27544;DHT22;17996;51.056;3.656;2023-02-01T11:29:44;9.30;99.90
27544;DHT22;17996;51.056;3.656;2023-02-01T11:32:13;9.30;99.90
27544;DHT22;17996;51.056;3.656;2023-02-01T11:35:04;9.20;99.90
27544;DHT22;17996;51.056;3.656;2023-02-01T11:37:37;9.30;99.90
27544;DHT22;17996;51.056;3.656;2023-02-01T11:40:29;9.40;99.90
27544;DHT22;17996;51.056;3.656;2023-02-01T11:43:00;9.40;99.90
27544;DHT22;17996;51.056;3.656;2023-02-01T11:45:27;9.30;99.90
27544;DHT22;17996;51.056;3.656;2023-02-01T11:47:54;9.30;99.90
27544;DHT22;17996;51.056;3.656;2023-02-01T11:56:34;9.40;99.90
27544;DHT22;17996;51.056;3.656;2023-02-01T11:59:34;9.40;99.90
27544;DHT22;17996;51.056;3.656;2023-02-01T12:02:23;9.40;99.90
27544;DHT22;17996;51.056;3.656;2023-02-01T12:05:31;9.50;99.90
27544;DHT22;17996;51.056;3.656;2023-02-01T12:08:22;9.40;99.90
27544;DHT22;17996;51.056;3.656;2023-02-01T12:13:47;9.40;99.90
27544;DHT22;17996;51.056;3.656;2023-02-01T12:19:11;9.50;99.90
27544;DHT22;17996;51.056;3.656;2023-02-01T12:24:55;9.60;99.90
27544;DHT22;17996;51.056;3.656;2023-02-01T12:35:38;9.70;99.90
27544;DHT22;17996;51.056;3.656;2023-02-01T12:38:12;9.60;99.90
27544;DHT22;17996;51.056;3.656;2023-02-01T12:46:14;9.60;99.90
27544;DHT22;17996;51.056;3.656;2023-02-01T12:48:54;9.70;99.90
27544;DHT22;17996;51.056;3.656;2023-02-01T12:51:42;9.70;99.90
27544;DHT22;17996;51.056;3.656;2023-02-01T12:54:35;9.60;99.90
27544;DHT22;17996;51.056;3.656;2023-02-01T12:57:10;9.60;99.90
27544;DHT22;17996;51.056;3.656;2023-02-01T12:59:47;9.70;99.90
27544;DHT22;17996;51.056;3.656;2023-02-01T13:02:41;9.70;99.90
27544;DHT22;17996;51.056;3.656;2023-02-01T13:05:18;9.70;99.90
27544;DHT22;17996;51.056;3.656;2023-02-01T13:08:07;9.80;99.90
27544;DHT22;17996;51.056;3.656;2023-02-01T13:13:44;9.90;99.90
27544;DHT22;17996;51.056;3.656;2023-02-01T13:18:42;9.90;99.90
27544;DHT22;17996;51.056;3.656;2023-02-01T13:21:27;10.00;99.90
27544;DHT22;17996;51.056;3.656;2023-02-01T13:23:56;10.00;99.90
27544;DHT22;17996;51.056;3.656;2023-02-01T13:26:21;10.10;99.90
27544;DHT22;17996;51.056;3.656;2023-02-01T13:28:55;10.10;99.90
27544;DHT22;17996;51.056;3.656;2023-02-01T13:36:43;10.20;99.90
27544;DHT22;17996;51.056;3.656;2023-02-01T13:42:16;10.40;99.90
27544;DHT22;17996;51.056;3.656;2023-02-01T13:44:47;10.50;99.90
27544;DHT22;17996;51.056;3.656;2023-02-01T13:47:31;10.60;99.90
27544;DHT22;17996;51.056;3.656;2023-02-01T13:50:01;10.50;99.90
27544;DHT22;17996;51.056;3.656;2023-02-01T13:52:29;10.40;99.90
27544;DHT22;17996;51.056;3.656;2023-02-01T13:57:49;10.40;99.90
27544;DHT22;17996;51.056;3.656;2023-02-01T14:00:26;10.40;99.90
27544;DHT22;17996;51.056;3.656;2023-02-01T14:03:06;10.40;99.90
27544;DHT22;17996;51.056;3.656;2023-02-01T14:13:28;10.40;99.90
27544;DHT22;17996;51.056;3.656;2023-02-01T14:23:46;10.30;99.90
27544;DHT22;17996;51.056;3.656;2023-02-01T14:26:17;10.30;99.90
27544;DHT22;17996;51.056;3.656;2023-02-01T14:28:51;10.30;99.90
27544;DHT22;17996;51.056;3.656;2023-02-01T14:31:40;10.30;99.90
27544;DHT22;17996;51.056;3.656;2023-02-01T14:34:17;10.20;99.90
27544;DHT22;17996;51.056;3.656;2023-02-01T14:36:56;10.10;99.90
27544;DHT22;17996;51.056;3.656;2023-02-01T14:39:30;10.20;99.90
27544;DHT22;17996;51.056;3.656;2023-02-01T14:42:00;10.20;99.90
27544;DHT22;17996;51.056;3.656;2023-02-01T14:44:29;10.10;99.90
27544;DHT22;17996;51.056;3.656;2023-02-01T14:47:27;10.10;99.90
27544;DHT22;17996;51.056;3.656;2023-02-01T14:50:15;10.10;99.90
27544;DHT22;17996;51.056;3.656;2023-02-01T14:52:44;10.00;99.90
27544;DHT22;17996;51.056;3.656;2023-02-01T14:58:02;10.00;99.90
27544;DHT22;17996;51.056;3.656;2023-02-01T15:00:30;10.00;99.90
27544;DHT22;17996;51.056;3.656;2023-02-01T15:05:55;9.90;99.90
27544;DHT22;17996;51.056;3.656;2023-02-01T15:08:26;9.90;99.90
27544;DHT22;17996;51.056;3.656;2023-02-01T15:10:54;10.00;99.90
27544;DHT22;17996;51.056;3.656;2023-02-01T15:13:26;10.00;99.90
27544;DHT22;17996;51.056;3.656;2023-02-01T15:18:30;9.90;99.90
27544;DHT22;17996;51.056;3.656;2023-02-01T15:20:57;9.80;99.90
27544;DHT22;17996;51.056;3.656;2023-02-01T15:23:23;9.80;99.90
27544;DHT22;17996;51.056;3.656;2023-02-01T15:25:49;9.80;99.90
27544;DHT22;17996;51.056;3.656;2023-02-01T15:28:16;9.80;99.90
27544;DHT22;17996;51.056;3.656;2023-02-01T15:31:03;9.80;99.90
27544;DHT22;17996;51.056;3.656;2023-02-01T15:33:30;9.70;99.90
27544;DHT22;17996;51.056;3.656;2023-02-01T15:38:32;9.60;99.90
27544;DHT22;17996;51.056;3.656;2023-02-01T15:41:20;9.70;99.90
27544;DHT22;17996;51.056;3.656;2023-02-01T15:46:34;9.60;99.90
27544;DHT22;17996;51.056;3.656;2023-02-01T15:49:02;9.60;99.90
27544;DHT22;17996;51.056;3.656;2023-02-01T15:51:31;9.60;99.90
27544;DHT22;17996;51.056;3.656;2023-02-01T15:54:02;9.60;99.90
27544;DHT22;17996;51.056;3.656;2023-02-01T15:56:37;9.50;99.90
27544;DHT22;17996;51.056;3.656;2023-02-01T15:59:06;9.50;99.90
27544;DHT22;17996;51.056;3.656;2023-02-01T16:01:38;9.60;99.90
27544;DHT22;17996;51.056;3.656;2023-02-01T16:04:27;9.60;99.90
27544;DHT22;17996;51.056;3.656;2023-02-01T16:07:01;9.50;99.90
27544;DHT22;17996;51.056;3.656;2023-02-01T16:09:53;9.50;99.90
27544;DHT22;17996;51.056;3.656;2023-02-01T16:15:04;9.50;99.90
27544;DHT22;17996;51.056;3.656;2023-02-01T16:17:31;9.50;99.90
27544;DHT22;17996;51.056;3.656;2023-02-01T16:19:56;9.50;99.90
27544;DHT22;17996;51.056;3.656;2023-02-01T16:22:23;9.60;99.90
27544;DHT22;17996;51.056;3.656;2023-02-01T16:24:49;9.50;99.90
27544;DHT22;17996;51.056;3.656;2023-02-01T16:27:15;9.60;99.90
27544;DHT22;17996;51.056;3.656;2023-02-01T16:29:40;9.40;99.90
27544;DHT22;17996;51.056;3.656;2023-02-01T16:32:10;9.40;99.90
27544;DHT22;17996;51.056;3.656;2023-02-01T16:34:39;9.50;99.90
27544;DHT22;17996;51.056;3.656;2023-02-01T16:37:05;9.50;99.90
27544;DHT22;17996;51.056;3.656;2023-02-01T16:39:31;9.40;99.90
27544;DHT22;17996;51.056;3.656;2023-02-01T16:41:58;9.40;99.90
27544;DHT22;17996;51.056;3.656;2023-02-01T16:44:24;9.40;99.90
27544;DHT22;17996;51.056;3.656;2023-02-01T16:46:50;9.50;99.90
27544;DHT22;17996;51.056;3.656;2023-02-01T16:49:21;9.40;99.90
27544;DHT22;17996;51.056;3.656;2023-02-01T16:51:49;9.30;99.90
27544;DHT22;17996;51.056;3.656;2023-02-01T16:54:15;9.30;99.90
27544;DHT22;17996;51.056;3.656;2023-02-01T16:56:41;9.30;99.90
27544;DHT22;17996;51.056;3.656;2023-02-01T16:59:08;9.40;99.90
27544;DHT22;17996;51.056;3.656;2023-02-01T17:01:34;9.50;99.90
27544;DHT22;17996;51.056;3.656;2023-02-01T17:03:59;9.40;99.90
27544;DHT22;17996;51.056;3.656;2023-02-01T17:06:26;9.50;99.90
27544;DHT22;17996;51.056;3.656;2023-02-01T17:08:55;9.50;99.90
27544;DHT22;17996;51.056;3.656;2023-02-01T17:11:23;9.50;99.90
27544;DHT22;17996;51.056;3.656;2023-02-01T17:13:49;9.40;99.90
27544;DHT22;17996;51.056;3.656;2023-02-01T17:18:43;9.50;99.90
27544;DHT22;17996;51.056;3.656;2023-02-01T17:21:09;9.50;99.90
27544;DHT22;17996;51.056;3.656;2023-02-01T17:23:35;9.50;99.90
27544;DHT22;17996;51.056;3.656;2023-02-01T17:26:01;9.50;99.90
27544;DHT22;17996;51.056;3.656;2023-02-01T17:28:28;9.50;99.90
27544;DHT22;17996;51.056;3.656;2023-02-01T17:30:54;9.40;99.90
27544;DHT22;17996;51.056;3.656;2023-02-01T17:33:35;9.50;99.90
27544;DHT22;17996;51.056;3.656;2023-02-01T17:36:01;9.50;99.90
27544;DHT22;17996;51.056;3.656;2023-02-01T17:38:27;9.50;99.90
27544;DHT22;17996;51.056;3.656;2023-02-01T17:40:53;9.50;99.90
27544;DHT22;17996;51.056;3.656;2023-02-01T17:43:24;9.50;99.90
27544;DHT22;17996;51.056;3.656;2023-02-01T17:45:59;9.40;99.90
27544;DHT22;17996;51.056;3.656;2023-02-01T17:48:25;9.40;99.90
27544;DHT22;17996;51.056;3.656;2023-02-01T17:50:51;9.40;99.90
27544;DHT22;17996;51.056;3.656;2023-02-01T17:53:23;9.40;99.90
27544;DHT22;17996;51.056;3.656;2023-02-01T17:55:49;9.50;99.90
27544;DHT22;17996;51.056;3.656;2023-02-01T17:58:16;9.50;99.90
27544;DHT22;17996;51.056;3.656;2023-02-01T18:00:43;9.50;99.90